This is the latest recevied weather packets stored in our database for station/object K5GHS-1. If no packets are shown the sender has not sent any weather packets the latest 10 day(s).
| Time | Temp. | Humidity | Pressure | Rain* | Wind** | Luminosity | Snow |
|---|---|---|---|---|---|---|---|
| 1778131020 | 13.33° C | 85% | 1015.5 hPa | 0 mm | - | 0 W/m² | - |
| 1778130716 | 13.89° C | 85% | 1015.5 hPa | 0 mm | - | 0 W/m² | - |
| 1778130413 | 13.89° C | 85% | 1015.5 hPa | 0 mm | - | 0 W/m² | - |
| 1778130110 | 13.89° C | 84% | 1015.6 hPa | 0 mm | - | 0 W/m² | - |
| 1778129807 | 13.89° C | 83% | 1015.4 hPa | 0 mm | - | 0 W/m² | - |
| 1778129503 | 13.89° C | 83% | 1015.6 hPa | 0 mm | - | 0 W/m² | - |
| 1778129201 | 13.89° C | 82% | 1015.5 hPa | 0 mm | - | 0 W/m² | - |
| 1778128897 | 14.44° C | 82% | 1015.5 hPa | 0 mm | - | 0 W/m² | - |
| 1778128593 | 14.44° C | 81% | 1015.5 hPa | 0 mm | - | 0 W/m² | - |
| 1778128291 | 14.44° C | 81% | 1015.6 hPa | 0 mm | - | 0 W/m² | - |
| 1778127987 | 14.44° C | 81% | 1015.9 hPa | 0 mm | - | 0 W/m² | - |
| 1778127682 | 14.44° C | 80% | 1015.7 hPa | 0 mm | - | 0 W/m² | - |
| 1778127379 | 14.44° C | 80% | 1015.5 hPa | 0 mm | - | 0 W/m² | - |
| 1778127076 | 14.44° C | 79% | 1015.7 hPa | 0 mm | - | 0 W/m² | - |
| 1778126773 | 14.44° C | 79% | 1015.8 hPa | 0 mm | - | 0 W/m² | - |
| 1778125861 | 15° C | 79% | 1016.1 hPa | 0 mm | - | 0 W/m² | - |
| 1778124651 | 15° C | 78% | 1015.6 hPa | 0 mm | - | 0 W/m² | - |
| 1778107053 | 16.11° C | 78% | 1011.8 hPa | 0 mm | - | 114 W/m² | - |
| 1778106141 | 16.11° C | 77% | 1012.1 hPa | 0 mm | - | 59 W/m² | - |
| 1778103414 | 16.67° C | 75% | 1012.1 hPa | 0 mm | - | 94 W/m² | - |
| 1778098864 | 16.11° C | 75% | 1012.2 hPa | 0 mm | - | 239 W/m² | - |
| 1778098258 | 16.67° C | 76% | 1012.5 hPa | 0 mm | - | 226 W/m² | - |
| 1778096136 | 15.56° C | 80% | 1013.1 hPa | 0 mm | - | 155 W/m² | - |
| 1778095833 | 15° C | 80% | 1012.6 hPa | 0 mm | - | 160 W/m² | - |
| 1778095529 | 15° C | 80% | 1012.8 hPa | 0 mm | - | 97 W/m² | - |
* Rain latest hour (hover to see other rain measurements)
** Current wind speed in m/s (hover to see current wind gust speed)